sensor_id;sensor_type;location;lat;lon;timestamp;temperature;humidity
73322;DHT22;61549;37.044;22.128;2022-10-30T00:00:32;20.20;35.80
73322;DHT22;61549;37.044;22.128;2022-10-30T00:02:57;20.30;36.20
73322;DHT22;61549;37.044;22.128;2022-10-30T00:05:23;20.40;37.70
73322;DHT22;61549;37.044;22.128;2022-10-30T00:07:49;20.40;38.70
73322;DHT22;61549;37.044;22.128;2022-10-30T00:10:16;20.50;36.30
73322;DHT22;61549;37.044;22.128;2022-10-30T00:12:43;20.50;34.80
73322;DHT22;61549;37.044;22.128;2022-10-30T00:15:09;20.50;34.00
73322;DHT22;61549;37.044;22.128;2022-10-30T00:17:35;20.60;33.00
73322;DHT22;61549;37.044;22.128;2022-10-30T00:20:01;20.70;33.00
73322;DHT22;61549;37.044;22.128;2022-10-30T00:22:27;20.80;33.80
73322;DHT22;61549;37.044;22.128;2022-10-30T00:24:52;20.90;33.20
73322;DHT22;61549;37.044;22.128;2022-10-30T00:27:18;21.00;32.70
73322;DHT22;61549;37.044;22.128;2022-10-30T00:29:44;21.00;32.80
73322;DHT22;61549;37.044;22.128;2022-10-30T00:32:10;21.10;32.10
73322;DHT22;61549;37.044;22.128;2022-10-30T00:34:36;21.20;32.00
73322;DHT22;61549;37.044;22.128;2022-10-30T00:37:02;21.20;31.70
73322;DHT22;61549;37.044;22.128;2022-10-30T00:39:28;21.20;32.20
73322;DHT22;61549;37.044;22.128;2022-10-30T00:41:53;21.20;32.40
73322;DHT22;61549;37.044;22.128;2022-10-30T00:50:40;21.30;31.80
73322;DHT22;61549;37.044;22.128;2022-10-30T00:52:52;21.40;32.10
73322;DHT22;61549;37.044;22.128;2022-10-30T00:55:23;21.50;32.40
73322;DHT22;61549;37.044;22.128;2022-10-30T00:57:51;21.50;32.20
73322;DHT22;61549;37.044;22.128;2022-10-30T01:00:20;21.50;32.60
73322;DHT22;61549;37.044;22.128;2022-10-30T01:02:46;21.50;32.60
73322;DHT22;61549;37.044;22.128;2022-10-30T01:05:17;21.60;33.90
73322;DHT22;61549;37.044;22.128;2022-10-30T01:07:44;21.60;35.80
73322;DHT22;61549;37.044;22.128;2022-10-30T01:10:11;21.60;36.40
73322;DHT22;61549;37.044;22.128;2022-10-30T01:12:38;21.50;35.60
73322;DHT22;61549;37.044;22.128;2022-10-30T01:15:05;21.40;34.50
73322;DHT22;61549;37.044;22.128;2022-10-30T01:17:56;21.30;33.80
73322;DHT22;61549;37.044;22.128;2022-10-30T01:20:35;21.30;34.70
73322;DHT22;61549;37.044;22.128;2022-10-30T01:31:31;21.10;34.20
73322;DHT22;61549;37.044;22.128;2022-10-30T01:34:19;21.10;34.70
73322;DHT22;61549;37.044;22.128;2022-10-30T01:39:48;21.00;34.00
73322;DHT22;61549;37.044;22.128;2022-10-30T01:45:02;20.90;34.50
73322;DHT22;61549;37.044;22.128;2022-10-30T01:53:09;20.80;33.60
73322;DHT22;61549;37.044;22.128;2022-10-30T02:00:48;20.70;33.30
73322;DHT22;61549;37.044;22.128;2022-10-30T02:03:16;20.80;33.20
73322;DHT22;61549;37.044;22.128;2022-10-30T02:05:50;20.70;33.00
73322;DHT22;61549;37.044;22.128;2022-10-30T02:08:17;20.80;32.90
73322;DHT22;61549;37.044;22.128;2022-10-30T02:10:45;20.80;32.70
73322;DHT22;61549;37.044;22.128;2022-10-30T02:13:11;20.80;32.70
73322;DHT22;61549;37.044;22.128;2022-10-30T02:15:37;20.80;33.00
73322;DHT22;61549;37.044;22.128;2022-10-30T02:18:04;20.90;34.60
73322;DHT22;61549;37.044;22.128;2022-10-30T02:20:30;20.80;32.80
73322;DHT22;61549;37.044;22.128;2022-10-30T02:22:56;20.90;34.60
73322;DHT22;61549;37.044;22.128;2022-10-30T02:25:22;20.80;35.70
73322;DHT22;61549;37.044;22.128;2022-10-30T02:27:48;20.80;36.10
73322;DHT22;61549;37.044;22.128;2022-10-30T02:30:14;20.70;36.50
73322;DHT22;61549;37.044;22.128;2022-10-30T02:32:40;20.60;36.50
73322;DHT22;61549;37.044;22.128;2022-10-30T02:35:06;20.40;36.40
73322;DHT22;61549;37.044;22.128;2022-10-30T02:37:32;20.30;36.40
73322;DHT22;61549;37.044;22.128;2022-10-30T02:40:01;20.20;37.30
73322;DHT22;61549;37.044;22.128;2022-10-30T02:42:27;20.00;37.40
73322;DHT22;61549;37.044;22.128;2022-10-30T02:44:52;20.00;38.10
73322;DHT22;61549;37.044;22.128;2022-10-30T02:47:18;19.90;38.10
73322;DHT22;61549;37.044;22.128;2022-10-30T02:49:44;19.80;38.10
73322;DHT22;61549;37.044;22.128;2022-10-30T02:52:10;19.70;38.00
73322;DHT22;61549;37.044;22.128;2022-10-30T02:54:36;19.70;37.70
73322;DHT22;61549;37.044;22.128;2022-10-30T02:57:02;19.60;38.10
73322;DHT22;61549;37.044;22.128;2022-10-30T02:59:29;19.50;38.20
73322;DHT22;61549;37.044;22.128;2022-10-30T03:01:54;19.40;37.90
73322;DHT22;61549;37.044;22.128;2022-10-30T03:04:20;19.40;38.40
73322;DHT22;61549;37.044;22.128;2022-10-30T03:06:46;19.30;38.00
73322;DHT22;61549;37.044;22.128;2022-10-30T03:09:12;19.20;37.90
73322;DHT22;61549;37.044;22.128;2022-10-30T03:11:38;19.20;38.20
73322;DHT22;61549;37.044;22.128;2022-10-30T03:14:04;19.20;38.00
73322;DHT22;61549;37.044;22.128;2022-10-30T03:16:30;19.20;38.60
73322;DHT22;61549;37.044;22.128;2022-10-30T03:18:57;19.00;37.70
73322;DHT22;61549;37.044;22.128;2022-10-30T03:21:24;19.00;39.20
73322;DHT22;61549;37.044;22.128;2022-10-30T03:23:51;19.00;39.90
73322;DHT22;61549;37.044;22.128;2022-10-30T03:26:18;18.90;39.50
73322;DHT22;61549;37.044;22.128;2022-10-30T03:28:44;18.90;39.30
73322;DHT22;61549;37.044;22.128;2022-10-30T03:31:12;18.90;40.40
73322;DHT22;61549;37.044;22.128;2022-10-30T03:33:39;18.80;40.40
73322;DHT22;61549;37.044;22.128;2022-10-30T03:36:06;18.70;39.50
73322;DHT22;61549;37.044;22.128;2022-10-30T03:38:33;18.60;39.10
73322;DHT22;61549;37.044;22.128;2022-10-30T03:40:59;18.70;39.20
73322;DHT22;61549;37.044;22.128;2022-10-30T03:43:26;18.70;39.90
73322;DHT22;61549;37.044;22.128;2022-10-30T03:45:54;18.60;39.90
73322;DHT22;61549;37.044;22.128;2022-10-30T03:48:22;18.50;40.10
73322;DHT22;61549;37.044;22.128;2022-10-30T03:50:48;18.50;39.60
73322;DHT22;61549;37.044;22.128;2022-10-30T03:53:14;18.50;40.20
73322;DHT22;61549;37.044;22.128;2022-10-30T03:55:40;18.50;41.00
73322;DHT22;61549;37.044;22.128;2022-10-30T03:58:07;18.50;41.70
73322;DHT22;61549;37.044;22.128;2022-10-30T04:00:33;18.50;42.10
73322;DHT22;61549;37.044;22.128;2022-10-30T04:03:00;18.60;42.80
73322;DHT22;61549;37.044;22.128;2022-10-30T04:05:27;18.60;42.90
73322;DHT22;61549;37.044;22.128;2022-10-30T04:07:58;18.60;42.80
73322;DHT22;61549;37.044;22.128;2022-10-30T04:10:24;18.50;43.40
73322;DHT22;61549;37.044;22.128;2022-10-30T04:12:50;18.50;43.70
73322;DHT22;61549;37.044;22.128;2022-10-30T04:15:17;18.50;43.90
73322;DHT22;61549;37.044;22.128;2022-10-30T04:17:50;18.50;44.30
73322;DHT22;61549;37.044;22.128;2022-10-30T04:20:17;18.40;44.90
73322;DHT22;61549;37.044;22.128;2022-10-30T04:22:43;18.40;44.90
73322;DHT22;61549;37.044;22.128;2022-10-30T04:25:09;18.40;45.00
73322;DHT22;61549;37.044;22.128;2022-10-30T04:27:42;18.40;45.10
73322;DHT22;61549;37.044;22.128;2022-10-30T04:30:10;18.30;45.10
73322;DHT22;61549;37.044;22.128;2022-10-30T04:32:52;18.40;44.60
73322;DHT22;61549;37.044;22.128;2022-10-30T04:35:20;18.40;44.20
73322;DHT22;61549;37.044;22.128;2022-10-30T04:37:53;18.40;44.10
73322;DHT22;61549;37.044;22.128;2022-10-30T04:40:20;18.50;44.20
73322;DHT22;61549;37.044;22.128;2022-10-30T04:42:47;18.50;44.80
73322;DHT22;61549;37.044;22.128;2022-10-30T04:45:13;18.50;45.20
73322;DHT22;61549;37.044;22.128;2022-10-30T04:47:39;18.50;44.40
73322;DHT22;61549;37.044;22.128;2022-10-30T04:50:05;18.40;43.90
73322;DHT22;61549;37.044;22.128;2022-10-30T04:52:31;18.50;44.20
73322;DHT22;61549;37.044;22.128;2022-10-30T04:54:57;18.50;45.20
73322;DHT22;61549;37.044;22.128;2022-10-30T04:57:23;18.40;44.60
73322;DHT22;61549;37.044;22.128;2022-10-30T04:59:49;18.40;44.20
73322;DHT22;61549;37.044;22.128;2022-10-30T05:02:15;18.40;43.90
73322;DHT22;61549;37.044;22.128;2022-10-30T05:04:40;18.40;43.70
73322;DHT22;61549;37.044;22.128;2022-10-30T05:07:06;18.40;43.80
73322;DHT22;61549;37.044;22.128;2022-10-30T05:09:32;18.30;43.30
73322;DHT22;61549;37.044;22.128;2022-10-30T05:11:59;18.30;43.90
73322;DHT22;61549;37.044;22.128;2022-10-30T05:14:28;18.30;44.20
73322;DHT22;61549;37.044;22.128;2022-10-30T05:16:54;18.30;43.90
73322;DHT22;61549;37.044;22.128;2022-10-30T05:19:20;18.20;44.40
73322;DHT22;61549;37.044;22.128;2022-10-30T05:21:46;18.20;45.00
73322;DHT22;61549;37.044;22.128;2022-10-30T05:24:12;18.20;46.00
73322;DHT22;61549;37.044;22.128;2022-10-30T05:26:38;18.20;45.60
73322;DHT22;61549;37.044;22.128;2022-10-30T05:29:03;18.20;45.80
73322;DHT22;61549;37.044;22.128;2022-10-30T05:31:29;18.20;46.00
73322;DHT22;61549;37.044;22.128;2022-10-30T05:33:55;18.20;46.20
73322;DHT22;61549;37.044;22.128;2022-10-30T05:36:21;18.20;46.20
73322;DHT22;61549;37.044;22.128;2022-10-30T05:38:47;18.30;46.00
73322;DHT22;61549;37.044;22.128;2022-10-30T05:41:13;18.30;45.10
73322;DHT22;61549;37.044;22.128;2022-10-30T05:43:38;18.30;44.90
73322;DHT22;61549;37.044;22.128;2022-10-30T05:46:04;18.30;45.20
73322;DHT22;61549;37.044;22.128;2022-10-30T05:48:30;18.30;45.50
73322;DHT22;61549;37.044;22.128;2022-10-30T05:50:56;18.40;45.70
73322;DHT22;61549;37.044;22.128;2022-10-30T05:53:22;18.30;46.10
73322;DHT22;61549;37.044;22.128;2022-10-30T05:55:49;18.40;46.90
73322;DHT22;61549;37.044;22.128;2022-10-30T05:58:15;18.40;47.30
73322;DHT22;61549;37.044;22.128;2022-10-30T06:00:41;18.40;48.00
73322;DHT22;61549;37.044;22.128;2022-10-30T06:03:12;18.30;48.50
73322;DHT22;61549;37.044;22.128;2022-10-30T06:05:38;18.50;49.10
73322;DHT22;61549;37.044;22.128;2022-10-30T06:08:05;18.70;49.00
73322;DHT22;61549;37.044;22.128;2022-10-30T06:10:32;18.80;49.40
73322;DHT22;61549;37.044;22.128;2022-10-30T06:13:03;19.00;49.70
73322;DHT22;61549;37.044;22.128;2022-10-30T06:15:31;19.20;50.20
73322;DHT22;61549;37.044;22.128;2022-10-30T06:17:57;19.50;50.10
73322;DHT22;61549;37.044;22.128;2022-10-30T06:20:25;19.80;50.10
73322;DHT22;61549;37.044;22.128;2022-10-30T06:23:05;20.10;49.60
73322;DHT22;61549;37.044;22.128;2022-10-30T06:25:33;20.50;49.10
73322;DHT22;61549;37.044;22.128;2022-10-30T06:27:59;20.80;48.00
73322;DHT22;61549;37.044;22.128;2022-10-30T06:30:26;21.10;47.30
73322;DHT22;61549;37.044;22.128;2022-10-30T06:33:01;21.40;47.00
73322;DHT22;61549;37.044;22.128;2022-10-30T06:35:27;21.70;44.60
73322;DHT22;61549;37.044;22.128;2022-10-30T06:37:54;21.90;43.60
73322;DHT22;61549;37.044;22.128;2022-10-30T06:40:22;22.20;44.20
73322;DHT22;61549;37.044;22.128;2022-10-30T06:42:49;22.50;43.60
73322;DHT22;61549;37.044;22.128;2022-10-30T06:45:17;22.60;42.10
73322;DHT22;61549;37.044;22.128;2022-10-30T06:47:43;22.90;43.20
73322;DHT22;61549;37.044;22.128;2022-10-30T06:50:11;23.10;42.50
73322;DHT22;61549;37.044;22.128;2022-10-30T06:52:37;23.30;41.60
73322;DHT22;61549;37.044;22.128;2022-10-30T06:55:04;23.60;41.30
73322;DHT22;61549;37.044;22.128;2022-10-30T06:57:30;23.60;38.50
73322;DHT22;61549;37.044;22.128;2022-10-30T06:59:56;23.70;38.90
73322;DHT22;61549;37.044;22.128;2022-10-30T07:02:22;23.80;38.70
73322;DHT22;61549;37.044;22.128;2022-10-30T07:04:48;24.00;39.90
73322;DHT22;61549;37.044;22.128;2022-10-30T07:07:15;24.20;39.40
73322;DHT22;61549;37.044;22.128;2022-10-30T07:09:41;24.40;37.40
73322;DHT22;61549;37.044;22.128;2022-10-30T07:12:07;24.60;37.20
73322;DHT22;61549;37.044;22.128;2022-10-30T07:14:34;24.70;36.70
73322;DHT22;61549;37.044;22.128;2022-10-30T07:17:00;24.80;36.90
73322;DHT22;61549;37.044;22.128;2022-10-30T07:19:26;25.00;37.50
73322;DHT22;61549;37.044;22.128;2022-10-30T07:21:52;25.00;38.00
73322;DHT22;61549;37.044;22.128;2022-10-30T07:24:18;25.20;38.20
73322;DHT22;61549;37.044;22.128;2022-10-30T07:26:44;25.40;38.30
73322;DHT22;61549;37.044;22.128;2022-10-30T07:29:10;25.50;36.60
73322;DHT22;61549;37.044;22.128;2022-10-30T07:31:36;25.50;38.00
73322;DHT22;61549;37.044;22.128;2022-10-30T07:34:02;25.70;36.40
73322;DHT22;61549;37.044;22.128;2022-10-30T07:36:28;25.90;36.70
73322;DHT22;61549;37.044;22.128;2022-10-30T07:38:54;25.90;36.70
73322;DHT22;61549;37.044;22.128;2022-10-30T07:41:21;25.80;36.70
73322;DHT22;61549;37.044;22.128;2022-10-30T07:43:47;26.00;36.20
73322;DHT22;61549;37.044;22.128;2022-10-30T07:46:13;26.10;36.00
73322;DHT22;61549;37.044;22.128;2022-10-30T07:48:39;26.20;37.10
73322;DHT22;61549;37.044;22.128;2022-10-30T07:51:07;26.30;36.00
73322;DHT22;61549;37.044;22.128;2022-10-30T07:53:33;26.40;37.20
73322;DHT22;61549;37.044;22.128;2022-10-30T07:55:59;26.50;38.10
73322;DHT22;61549;37.044;22.128;2022-10-30T07:58:32;26.60;38.00
73322;DHT22;61549;37.044;22.128;2022-10-30T08:00:58;26.70;37.80
73322;DHT22;61549;37.044;22.128;2022-10-30T08:03:24;26.80;36.30
73322;DHT22;61549;37.044;22.128;2022-10-30T08:05:50;26.90;35.80
73322;DHT22;61549;37.044;22.128;2022-10-30T08:08:15;27.00;36.40
73322;DHT22;61549;37.044;22.128;2022-10-30T08:10:41;27.10;37.40
73322;DHT22;61549;37.044;22.128;2022-10-30T08:13:07;27.20;38.40
73322;DHT22;61549;37.044;22.128;2022-10-30T08:15:33;27.30;37.00
73322;DHT22;61549;37.044;22.128;2022-10-30T08:17:59;27.50;37.20
73322;DHT22;61549;37.044;22.128;2022-10-30T08:20:25;27.50;38.00
73322;DHT22;61549;37.044;22.128;2022-10-30T08:22:56;27.50;37.80
73322;DHT22;61549;37.044;22.128;2022-10-30T08:25:24;27.70;39.00
73322;DHT22;61549;37.044;22.128;2022-10-30T08:27:59;27.80;38.90
73322;DHT22;61549;37.044;22.128;2022-10-30T08:30:27;27.90;37.40
73322;DHT22;61549;37.044;22.128;2022-10-30T08:32:57;27.90;38.50
73322;DHT22;61549;37.044;22.128;2022-10-30T08:35:24;28.00;38.60
73322;DHT22;61549;37.044;22.128;2022-10-30T08:37:56;28.10;38.00
73322;DHT22;61549;37.044;22.128;2022-10-30T08:40:23;28.00;37.60
73322;DHT22;61549;37.044;22.128;2022-10-30T08:42:50;28.00;37.80
73322;DHT22;61549;37.044;22.128;2022-10-30T08:45:17;28.10;37.60
73322;DHT22;61549;37.044;22.128;2022-10-30T08:47:42;28.20;38.50
73322;DHT22;61549;37.044;22.128;2022-10-30T08:50:08;28.00;36.60
73322;DHT22;61549;37.044;22.128;2022-10-30T08:52:34;28.00;37.50
73322;DHT22;61549;37.044;22.128;2022-10-30T08:55:00;28.20;36.10
73322;DHT22;61549;37.044;22.128;2022-10-30T08:57:26;28.20;36.90
73322;DHT22;61549;37.044;22.128;2022-10-30T08:59:52;28.20;37.30
73322;DHT22;61549;37.044;22.128;2022-10-30T09:02:18;28.20;36.30
73322;DHT22;61549;37.044;22.128;2022-10-30T09:04:44;28.20;36.20
73322;DHT22;61549;37.044;22.128;2022-10-30T09:07:09;28.20;37.30
73322;DHT22;61549;37.044;22.128;2022-10-30T09:09:35;27.90;37.30
73322;DHT22;61549;37.044;22.128;2022-10-30T09:12:01;27.70;37.70
73322;DHT22;61549;37.044;22.128;2022-10-30T09:14:27;27.60;38.40
73322;DHT22;61549;37.044;22.128;2022-10-30T09:16:53;27.70;38.20
73322;DHT22;61549;37.044;22.128;2022-10-30T09:19:19;27.60;38.30
73322;DHT22;61549;37.044;22.128;2022-10-30T09:21:45;27.70;38.20
73322;DHT22;61549;37.044;22.128;2022-10-30T09:24:11;27.80;37.60
73322;DHT22;61549;37.044;22.128;2022-10-30T09:26:37;27.90;38.80
73322;DHT22;61549;37.044;22.128;2022-10-30T09:29:03;28.00;38.20
73322;DHT22;61549;37.044;22.128;2022-10-30T09:31:28;27.80;38.30
73322;DHT22;61549;37.044;22.128;2022-10-30T09:33:54;27.80;39.10
73322;DHT22;61549;37.044;22.128;2022-10-30T09:36:20;27.60;38.70
73322;DHT22;61549;37.044;22.128;2022-10-30T09:38:46;27.50;39.60
73322;DHT22;61549;37.044;22.128;2022-10-30T09:49:45;27.50;39.80
73322;DHT22;61549;37.044;22.128;2022-10-30T10:00:18;27.60;39.30
73322;DHT22;61549;37.044;22.128;2022-10-30T10:02:57;27.70;38.50
73322;DHT22;61549;37.044;22.128;2022-10-30T10:08:06;27.60;37.90
73322;DHT22;61549;37.044;22.128;2022-10-30T10:10:44;27.70;38.30
73322;DHT22;61549;37.044;22.128;2022-10-30T10:15:50;27.50;37.70
73322;DHT22;61549;37.044;22.128;2022-10-30T10:18:25;27.40;38.00
73322;DHT22;61549;37.044;22.128;2022-10-30T10:20:54;27.40;37.80
73322;DHT22;61549;37.044;22.128;2022-10-30T10:23:26;27.60;37.00
73322;DHT22;61549;37.044;22.128;2022-10-30T10:25:58;27.70;37.30
73322;DHT22;61549;37.044;22.128;2022-10-30T10:45:47;28.00;37.70
73322;DHT22;61549;37.044;22.128;2022-10-30T10:48:22;27.90;37.40
73322;DHT22;61549;37.044;22.128;2022-10-30T10:51:06;28.00;37.50
73322;DHT22;61549;37.044;22.128;2022-10-30T10:53:56;28.00;37.50
73322;DHT22;61549;37.044;22.128;2022-10-30T10:56:29;28.20;37.20
73322;DHT22;61549;37.044;22.128;2022-10-30T10:59:20;28.20;37.30
73322;DHT22;61549;37.044;22.128;2022-10-30T11:04:42;28.50;36.20
73322;DHT22;61549;37.044;22.128;2022-10-30T11:09:44;28.50;36.20
73322;DHT22;61549;37.044;22.128;2022-10-30T11:12:10;28.20;36.30
73322;DHT22;61549;37.044;22.128;2022-10-30T11:14:36;28.20;37.10
73322;DHT22;61549;37.044;22.128;2022-10-30T11:19:38;28.30;36.70
73322;DHT22;61549;37.044;22.128;2022-10-30T11:22:35;28.10;37.30
73322;DHT22;61549;37.044;22.128;2022-10-30T11:25:19;28.30;37.10
73322;DHT22;61549;37.044;22.128;2022-10-30T11:27:54;28.30;35.40
73322;DHT22;61549;37.044;22.128;2022-10-30T11:30:23;28.50;35.40
73322;DHT22;61549;37.044;22.128;2022-10-30T11:32:49;28.70;34.80
73322;DHT22;61549;37.044;22.128;2022-10-30T11:35:18;28.50;34.90
73322;DHT22;61549;37.044;22.128;2022-10-30T11:37:48;28.50;36.50
73322;DHT22;61549;37.044;22.128;2022-10-30T11:40:15;28.50;37.10
73322;DHT22;61549;37.044;22.128;2022-10-30T11:45:32;28.10;37.50
73322;DHT22;61549;37.044;22.128;2022-10-30T11:48:01;28.00;37.90
73322;DHT22;61549;37.044;22.128;2022-10-30T11:50:29;27.90;37.80
73322;DHT22;61549;37.044;22.128;2022-10-30T11:52:59;27.80;38.20
73322;DHT22;61549;37.044;22.128;2022-10-30T11:57:57;27.90;38.80
73322;DHT22;61549;37.044;22.128;2022-10-30T12:00:25;27.80;39.40
73322;DHT22;61549;37.044;22.128;2022-10-30T12:02:53;27.60;39.30
73322;DHT22;61549;37.044;22.128;2022-10-30T12:08:16;27.30;41.80
73322;DHT22;61549;37.044;22.128;2022-10-30T12:11:02;27.50;41.80
73322;DHT22;61549;37.044;22.128;2022-10-30T12:13:35;27.60;41.70
73322;DHT22;61549;37.044;22.128;2022-10-30T12:16:14;27.80;40.80
73322;DHT22;61549;37.044;22.128;2022-10-30T12:18:50;27.80;39.50
73322;DHT22;61549;37.044;22.128;2022-10-30T12:21:18;27.80;38.60
73322;DHT22;61549;37.044;22.128;2022-10-30T12:23:54;27.90;39.00
73322;DHT22;61549;37.044;22.128;2022-10-30T12:26:21;27.80;38.10
73322;DHT22;61549;37.044;22.128;2022-10-30T12:28:56;27.80;38.90
73322;DHT22;61549;37.044;22.128;2022-10-30T12:31:48;27.80;37.80
73322;DHT22;61549;37.044;22.128;2022-10-30T12:34:50;27.90;38.40
73322;DHT22;61549;37.044;22.128;2022-10-30T12:37:34;27.80;37.10
73322;DHT22;61549;37.044;22.128;2022-10-30T12:42:38;27.80;39.30
73322;DHT22;61549;37.044;22.128;2022-10-30T12:45:19;27.70;39.30
73322;DHT22;61549;37.044;22.128;2022-10-30T12:48:09;27.50;38.20
73322;DHT22;61549;37.044;22.128;2022-10-30T12:50:46;27.10;39.60
73322;DHT22;61549;37.044;22.128;2022-10-30T12:53:31;27.00;39.80
73322;DHT22;61549;37.044;22.128;2022-10-30T12:56:23;26.80;38.60
73322;DHT22;61549;37.044;22.128;2022-10-30T12:59:20;26.90;38.80
73322;DHT22;61549;37.044;22.128;2022-10-30T13:01:59;27.00;37.50
73322;DHT22;61549;37.044;22.128;2022-10-30T13:04:34;27.30;37.70
73322;DHT22;61549;37.044;22.128;2022-10-30T13:12:45;27.30;37.00
73322;DHT22;61549;37.044;22.128;2022-10-30T13:15:26;27.30;36.20
73322;DHT22;61549;37.044;22.128;2022-10-30T13:17:56;26.90;36.90
73322;DHT22;61549;37.044;22.128;2022-10-30T13:20:25;26.50;37.00
73322;DHT22;61549;37.044;22.128;2022-10-30T13:23:07;26.30;37.00
73322;DHT22;61549;37.044;22.128;2022-10-30T13:25:52;26.50;37.50
73322;DHT22;61549;37.044;22.128;2022-10-30T13:28:52;26.30;37.10
73322;DHT22;61549;37.044;22.128;2022-10-30T13:34:29;26.40;35.90
73322;DHT22;61549;37.044;22.128;2022-10-30T13:40:20;26.10;35.60
73322;DHT22;61549;37.044;22.128;2022-10-30T13:43:03;26.30;35.40
73322;DHT22;61549;37.044;22.128;2022-10-30T13:51:41;26.40;36.40
73322;DHT22;61549;37.044;22.128;2022-10-30T13:54:21;26.50;37.10
73322;DHT22;61549;37.044;22.128;2022-10-30T13:56:48;26.50;37.60
73322;DHT22;61549;37.044;22.128;2022-10-30T13:59:47;26.00;36.70
73322;DHT22;61549;37.044;22.128;2022-10-30T14:05:14;26.10;38.10
73322;DHT22;61549;37.044;22.128;2022-10-30T14:08:06;26.00;37.70
73322;DHT22;61549;37.044;22.128;2022-10-30T14:10:44;25.90;38.00
73322;DHT22;61549;37.044;22.128;2022-10-30T14:13:14;26.00;37.50
73322;DHT22;61549;37.044;22.128;2022-10-30T14:15:45;26.10;37.30
73322;DHT22;61549;37.044;22.128;2022-10-30T14:20:50;26.40;37.30
73322;DHT22;61549;37.044;22.128;2022-10-30T14:23:27;26.20;37.50
73322;DHT22;61549;37.044;22.128;2022-10-30T14:28:37;26.50;37.30
73322;DHT22;61549;37.044;22.128;2022-10-30T14:31:09;26.50;37.60
73322;DHT22;61549;37.044;22.128;2022-10-30T14:33:50;26.40;37.10
73322;DHT22;61549;37.044;22.128;2022-10-30T14:36:24;26.40;37.00
73322;DHT22;61549;37.044;22.128;2022-10-30T14:38:59;26.40;37.00
73322;DHT22;61549;37.044;22.128;2022-10-30T14:44:17;26.50;36.80
73322;DHT22;61549;37.044;22.128;2022-10-30T14:55:34;26.50;36.60
73322;DHT22;61549;37.044;22.128;2022-10-30T15:05:53;26.60;38.10
73322;DHT22;61549;37.044;22.128;2022-10-30T15:08:24;26.60;38.30
73322;DHT22;61549;37.044;22.128;2022-10-30T15:13:47;26.60;38.90
73322;DHT22;61549;37.044;22.128;2022-10-30T15:16:17;26.50;38.10
73322;DHT22;61549;37.044;22.128;2022-10-30T15:18:54;26.40;39.00
73322;DHT22;61549;37.044;22.128;2022-10-30T15:21:22;26.30;40.10
73322;DHT22;61549;37.044;22.128;2022-10-30T15:23:55;26.10;41.20
73322;DHT22;61549;37.044;22.128;2022-10-30T15:26:27;26.00;41.80
73322;DHT22;61549;37.044;22.128;2022-10-30T15:28:55;25.80;42.10
73322;DHT22;61549;37.044;22.128;2022-10-30T15:31:26;25.70;43.10
73322;DHT22;61549;37.044;22.128;2022-10-30T15:33:53;25.50;42.90
73322;DHT22;61549;37.044;22.128;2022-10-30T15:39:08;25.10;43.50
73322;DHT22;61549;37.044;22.128;2022-10-30T15:41:46;25.00;43.50
73322;DHT22;61549;37.044;22.128;2022-10-30T15:44:18;24.80;43.60
73322;DHT22;61549;37.044;22.128;2022-10-30T15:46:47;24.70;43.80
73322;DHT22;61549;37.044;22.128;2022-10-30T15:49:18;24.50;43.80
73322;DHT22;61549;37.044;22.128;2022-10-30T15:51:46;24.50;43.90
73322;DHT22;61549;37.044;22.128;2022-10-30T15:54:17;24.40;43.90
73322;DHT22;61549;37.044;22.128;2022-10-30T15:56:45;24.40;43.90
73322;DHT22;61549;37.044;22.128;2022-10-30T15:59:26;24.30;44.00
73322;DHT22;61549;37.044;22.128;2022-10-30T16:01:54;24.30;43.70
73322;DHT22;61549;37.044;22.128;2022-10-30T16:04:32;24.10;43.40
73322;DHT22;61549;37.044;22.128;2022-10-30T16:07:01;24.00;43.10
73322;DHT22;61549;37.044;22.128;2022-10-30T16:09:29;23.90;43.00
73322;DHT22;61549;37.044;22.128;2022-10-30T16:11:58;23.90;43.00
73322;DHT22;61549;37.044;22.128;2022-10-30T16:14:26;23.90;43.70
73322;DHT22;61549;37.044;22.128;2022-10-30T16:16:58;23.80;43.40
73322;DHT22;61549;37.044;22.128;2022-10-30T16:19:30;23.80;42.90
73322;DHT22;61549;37.044;22.128;2022-10-30T16:21:59;23.80;42.10
73322;DHT22;61549;37.044;22.128;2022-10-30T16:24:32;23.80;41.30
73322;DHT22;61549;37.044;22.128;2022-10-30T16:27:06;23.80;41.00
73322;DHT22;61549;37.044;22.128;2022-10-30T16:29:39;23.80;40.90
73322;DHT22;61549;37.044;22.128;2022-10-30T16:32:13;23.80;41.20
73322;DHT22;61549;37.044;22.128;2022-10-30T16:34:41;23.90;40.90
73322;DHT22;61549;37.044;22.128;2022-10-30T16:37:25;23.90;40.50
73322;DHT22;61549;37.044;22.128;2022-10-30T16:39:53;23.80;40.10
73322;DHT22;61549;37.044;22.128;2022-10-30T16:42:24;23.80;39.50
73322;DHT22;61549;37.044;22.128;2022-10-30T16:47:38;23.80;38.40
73322;DHT22;61549;37.044;22.128;2022-10-30T16:50:06;23.80;38.40
73322;DHT22;61549;37.044;22.128;2022-10-30T16:52:33;23.80;38.50
73322;DHT22;61549;37.044;22.128;2022-10-30T16:55:20;23.70;38.20
73322;DHT22;61549;37.044;22.128;2022-10-30T16:57:53;23.80;38.00
73322;DHT22;61549;37.044;22.128;2022-10-30T17:00:21;23.60;37.80
73322;DHT22;61549;37.044;22.128;2022-10-30T17:02:50;23.70;37.90
73322;DHT22;61549;37.044;22.128;2022-10-30T17:05:26;23.70;38.00
73322;DHT22;61549;37.044;22.128;2022-10-30T17:08:00;23.60;38.10
73322;DHT22;61549;37.044;22.128;2022-10-30T17:10:59;23.60;38.20
73322;DHT22;61549;37.044;22.128;2022-10-30T17:16:23;23.60;38.20
73322;DHT22;61549;37.044;22.128;2022-10-30T17:18:50;23.60;38.10
73322;DHT22;61549;37.044;22.128;2022-10-30T17:21:22;23.70;37.90
73322;DHT22;61549;37.044;22.128;2022-10-30T17:23:50;23.60;37.60
73322;DHT22;61549;37.044;22.128;2022-10-30T17:26:17;23.60;37.30
73322;DHT22;61549;37.044;22.128;2022-10-30T17:28:44;23.60;37.30
73322;DHT22;61549;37.044;22.128;2022-10-30T17:36:29;23.60;37.30
73322;DHT22;61549;37.044;22.128;2022-10-30T17:38:55;23.50;37.50
73322;DHT22;61549;37.044;22.128;2022-10-30T17:41:21;23.50;37.30
73322;DHT22;61549;37.044;22.128;2022-10-30T17:43:51;23.50;37.20
73322;DHT22;61549;37.044;22.128;2022-10-30T17:46:19;23.50;37.40
73322;DHT22;61549;37.044;22.128;2022-10-30T17:48:45;23.50;37.00
73322;DHT22;61549;37.044;22.128;2022-10-30T17:51:14;23.50;36.90
73322;DHT22;61549;37.044;22.128;2022-10-30T17:53:40;23.50;36.80
73322;DHT22;61549;37.044;22.128;2022-10-30T17:56:28;23.40;36.80
73322;DHT22;61549;37.044;22.128;2022-10-30T17:58:57;23.40;36.90
73322;DHT22;61549;37.044;22.128;2022-10-30T18:01:24;23.30;37.20